Aérodrome :
LOGIN :

S'inscrire | Disclaimer

   EN    FR    IT 

 










Légende :    VFR   VFR Marginal   IFR   IFR Intensif   IFR Très Intensif
Visi : 
Plafond : 
>= 8 km
>= 3000ft
5 à 8 km
1000 à 3000 ft
1500m à 5 km
500 à 1000 ft
800 à 1500m
200 à 500 ft
< 800m
< 200 ft
Symboles :   Orages  Brouillard  Fortes neiges  Fortes précipitations  Vent > 20 kt
SIGMETs :   Divers  Orages  Givrage  Turbulence  Onde Orograph.  Cendres Volcan.






- Altitude de l'aérodrome : 587 ft
- Code IATA : XCR


LFOK - Chalons Vatry

DERNIER METAR :
  • 190830Z AUTO 07004KT 020V150 CAVOK 24/17 Q1015 NOSIG

METARs EXPIRÉS :
  • 190800Z AUTO 13004KT 070V170 CAVOK 23/18 Q1015 NOSIG
  • 190730Z AUTO 09005KT CAVOK 22/17 Q1015 NOSIG
  • 190700Z AUTO 10005KT 060V130 CAVOK 22/17 Q1016 NOSIG
  • 190630Z AUTO 10005KT 070V130 CAVOK 21/17 Q1016 NOSIG
  • 190600Z AUTO VRB02KT CAVOK 20/16 Q1016 NOSIG

TAF TAF LFOK
Valide du 19 à 06h jusqu'au 20 à 06h UTC


190500Z 1906/2006 VRB03KT CAVOK
PROB30
TEMPO 1911/1915 3000 SHRA BKN030CB
TEMPO 1921/2002 VRB15G25KT 1200 TSRAGS BKN007 BKN030CB
BECMG 2002/2004 21010KT



MET'MAP, la Météo Aéronautique d'un coup d'oeil ! - Copyright ORBIFLY Décembre 2007 - Disclaimer

ORBIFLY MET'MAP TEAM :

Programmation & Développement : Alexandra Zaïnal
Sur une idée originale de : Baudouin d'Aumeries
Assistance à la programmation : Marc-Olivier Méhu
Soutien technique & logistique : Manuel Goepfert

Contact : metmap@orbifly.com




SOURCES & CREDITS :

   NOAA